Time;durP1;ratioP1;P1;durP2;ratioP2;P2;SDS_P1;SDS_P2;PMS_P1;PMS_P2;Temp;Humidity;BMP_temperature;BMP_pressure;BME280_temperature;BME280_humidity;BME280_pressure;Samples;Min_cycle;Max_cycle;Signal;HPM_P1;HPM_P2
2023/12/07 00:01:24;;;;;;;;;;;18.60;56.60;;;;;;7323811;19;9078;-78
2023/12/07 00:03:53;;;;;;;;;;;18.70;56.60;;;;;;7321059;19;9471;-78
2023/12/07 00:06:24;;;;;;;;;;;18.70;56.60;;;;;;7322169;19;9294;-78
2023/12/07 00:08:53;;;;;;;;;;;18.80;56.50;;;;;;7321476;19;9462;-78
2023/12/07 00:11:24;;;;;;;;;;;18.80;56.60;;;;;;7321542;19;9203;-78
2023/12/07 00:13:53;;;;;;;;;;;18.90;56.50;;;;;;7321556;19;9477;-78
2023/12/07 00:16:22;;;;;;;;;;;19.00;56.50;;;;;;7321307;19;9521;-78
2023/12/07 00:18:51;;;;;;;;;;;19.00;56.30;;;;;;7320189;19;10397;-78
2023/12/07 00:21:23;;;;;;;;;;;19.10;56.30;;;;;;7321868;19;9613;-78
2023/12/07 00:23:53;;;;;;;;;;;19.20;56.30;;;;;;7321011;19;9273;-79
2023/12/07 00:26:22;;;;;;;;;;;19.20;56.20;;;;;;7320018;19;9669;-78
2023/12/07 00:28:51;;;;;;;;;;;19.30;56.20;;;;;;7322402;19;9460;-78
2023/12/07 00:31:20;;;;;;;;;;;19.40;56.00;;;;;;7320993;19;9124;-78
2023/12/07 00:33:49;;;;;;;;;;;19.40;56.00;;;;;;7322825;19;9581;-78
2023/12/07 00:36:18;;;;;;;;;;;19.50;55.90;;;;;;7321635;19;9531;-79
2023/12/07 00:38:50;;;;;;;;;;;19.50;55.90;;;;;;7321895;19;9232;-79
2023/12/07 00:41:19;;;;;;;;;;;19.60;55.90;;;;;;7320935;19;11879;-79
2023/12/07 00:43:47;;;;;;;;;;;19.60;55.70;;;;;;7322297;19;9742;-79
2023/12/07 00:46:16;;;;;;;;;;;19.70;55.70;;;;;;7320916;19;9746;-80
2023/12/07 00:48:45;;;;;;;;;;;19.70;55.70;;;;;;7319548;19;9634;-76
2023/12/07 00:51:15;;;;;;;;;;;19.70;55.60;;;;;;7320624;19;9369;-79
2023/12/07 00:53:44;;;;;;;;;;;19.80;55.70;;;;;;7320942;19;9463;-79
2023/12/07 00:56:15;;;;;;;;;;;19.80;55.50;;;;;;7319108;19;9577;-79
2023/12/07 00:58:44;;;;;;;;;;;19.80;55.50;;;;;;7318249;19;10736;-79
2023/12/07 01:01:33;;;;;;;;;;;19.90;55.50;;;;;;7319464;19;10461;-79
2023/12/07 01:04:02;;;;;;;;;;;19.90;55.50;;;;;;7322296;19;9288;-78
2023/12/07 01:06:31;;;;;;;;;;;19.90;55.50;;;;;;7318642;19;10414;-77
2023/12/07 01:09:00;;;;;;;;;;;19.90;55.40;;;;;;7319827;19;9493;-79
2023/12/07 01:11:32;;;;;;;;;;;19.90;55.40;;;;;;7321318;19;9657;-76
2023/12/07 01:14:01;;;;;;;;;;;19.90;55.40;;;;;;7320144;19;9493;-78
2023/12/07 01:16:30;;;;;;;;;;;19.90;55.40;;;;;;7319492;19;9409;-78
2023/12/07 01:18:59;;;;;;;;;;;19.80;55.30;;;;;;7317210;19;10029;-78
2023/12/07 01:21:48;;;;;;;;;;;19.80;55.40;;;;;;7317714;19;9545;-78
2023/12/07 01:24:17;;;;;;;;;;;19.80;55.50;;;;;;7320409;19;10828;-78
2023/12/07 01:27:09;;;;;;;;;;;19.80;55.30;;;;;;7315701;19;9488;-78
2023/12/07 01:29:38;;;;;;;;;;;19.70;55.20;;;;;;7318048;19;9567;-78
2023/12/07 01:32:07;;;;;;;;;;;19.70;55.20;;;;;;7320532;19;9453;-79
2023/12/07 01:34:36;;;;;;;;;;;19.70;55.20;;;;;;7319870;19;9214;-79
2023/12/07 01:37:05;;;;;;;;;;;19.60;55.20;;;;;;7319096;19;9254;-79
2023/12/07 01:39:34;;;;;;;;;;;19.50;55.30;;;;;;7317366;19;9127;-79
2023/12/07 01:42:03;;;;;;;;;;;19.50;55.40;;;;;;7320045;19;9415;-78
2023/12/07 01:44:35;;;;;;;;;;;19.50;55.40;;;;;;7318086;19;9846;-79
2023/12/07 01:47:05;;;;;;;;;;;19.40;55.40;;;;;;7319124;19;9390;-79
2023/12/07 01:49:35;;;;;;;;;;;19.40;55.50;;;;;;7318856;19;9469;-79
2023/12/07 01:52:05;;;;;;;;;;;19.30;55.50;;;;;;7317801;19;9575;-79
2023/12/07 01:54:35;;;;;;;;;;;19.30;55.70;;;;;;7318509;19;9233;-79
2023/12/07 01:57:05;;;;;;;;;;;19.20;55.70;;;;;;7318711;19;9638;-79
2023/12/07 01:59:36;;;;;;;;;;;19.20;55.80;;;;;;7319548;19;9231;-79
2023/12/07 02:02:06;;;;;;;;;;;19.10;55.80;;;;;;7317781;19;9447;-79
2023/12/07 02:04:35;;;;;;;;;;;19.10;55.90;;;;;;7319601;19;9732;-79
2023/12/07 02:07:05;;;;;;;;;;;19.00;55.90;;;;;;7320591;19;9532;-79
2023/12/07 02:09:34;;;;;;;;;;;19.00;56.10;;;;;;7322224;19;9516;-79
2023/12/07 02:12:03;;;;;;;;;;;18.90;56.10;;;;;;7325868;19;9810;-79
2023/12/07 02:14:34;;;;;;;;;;;18.90;56.10;;;;;;7324842;19;9221;-79
2023/12/07 02:17:17;;;;;;;;;;;18.90;56.20;;;;;;7331049;19;9198;-78
2023/12/07 02:20:05;;;;;;;;;;;18.80;56.20;;;;;;7336087;19;9517;-78
2023/12/07 02:22:44;;;;;;;;;;;18.80;56.20;;;;;;7327913;19;9277;-79
2023/12/07 02:25:15;;;;;;;;;;;18.80;56.30;;;;;;7325653;19;9862;-79
2023/12/07 02:27:48;;;;;;;;;;;18.70;56.30;;;;;;7325450;19;9470;-79
2023/12/07 02:30:18;;;;;;;;;;;18.70;56.40;;;;;;7323173;19;8977;-79
2023/12/07 02:32:48;;;;;;;;;;;18.70;56.50;;;;;;7323718;19;9399;-79
2023/12/07 02:35:18;;;;;;;;;;;18.70;56.50;;;;;;7323869;19;9548;-79
2023/12/07 02:37:48;;;;;;;;;;;18.60;56.40;;;;;;7323195;19;9508;-79
2023/12/07 02:40:20;;;;;;;;;;;18.60;56.50;;;;;;7323315;19;9448;-79
2023/12/07 02:42:53;;;;;;;;;;;18.60;56.50;;;;;;7324096;19;9527;-77
2023/12/07 02:45:22;;;;;;;;;;;18.60;56.50;;;;;;7323156;19;9483;-79
2023/12/07 02:47:51;;;;;;;;;;;18.60;56.50;;;;;;7323981;19;9351;-79
2023/12/07 02:50:20;;;;;;;;;;;18.60;56.50;;;;;;7323152;19;10648;-78
2023/12/07 02:52:50;;;;;;;;;;;18.60;56.50;;;;;;7325212;19;10556;-79
2023/12/07 02:55:18;;;;;;;;;;;18.60;56.50;;;;;;7324432;19;9537;-79
2023/12/07 02:57:51;;;;;;;;;;;18.60;56.40;;;;;;7324145;19;9309;-79
2023/12/07 03:00:21;;;;;;;;;;;18.70;56.40;;;;;;7323749;19;10745;-77
2023/12/07 03:02:50;;;;;;;;;;;18.70;56.20;;;;;;7323130;19;9596;-77
2023/12/07 03:05:19;;;;;;;;;;;18.80;56.20;;;;;;7321245;19;9293;-79
2023/12/07 03:07:48;;;;;;;;;;;18.80;56.30;;;;;;7318630;19;9337;-78
2023/12/07 03:10:17;;;;;;;;;;;18.90;56.30;;;;;;7322963;19;9606;-78
2023/12/07 03:12:46;;;;;;;;;;;18.90;56.10;;;;;;7321656;19;9471;-78
2023/12/07 03:15:18;;;;;;;;;;;19.00;56.20;;;;;;7322916;19;9442;-79
2023/12/07 03:17:47;;;;;;;;;;;19.10;56.00;;;;;;7323641;19;9337;-79
2023/12/07 03:20:16;;;;;;;;;;;19.10;55.90;;;;;;7321498;19;9485;-79
2023/12/07 03:22:46;;;;;;;;;;;19.20;56.00;;;;;;7323506;19;9453;-78
2023/12/07 03:25:15;;;;;;;;;;;19.20;55.80;;;;;;7322532;19;9478;-79
2023/12/07 03:27:44;;;;;;;;;;;19.30;56.00;;;;;;7323415;19;9535;-79
2023/12/07 03:30:14;;;;;;;;;;;19.30;55.60;;;;;;7323556;19;9644;-79
2023/12/07 03:32:45;;;;;;;;;;;19.30;55.70;;;;;;7325715;19;9627;-79
2023/12/07 03:35:14;;;;;;;;;;;19.30;55.60;;;;;;7320755;19;9483;-78
2023/12/07 03:37:43;;;;;;;;;;;19.30;55.60;;;;;;7324044;19;9220;-79
2023/12/07 03:40:13;;;;;;;;;;;19.40;55.60;;;;;;7323004;19;9399;-79
2023/12/07 03:42:42;;;;;;;;;;;19.40;55.70;;;;;;7322557;19;10410;-79
2023/12/07 03:45:11;;;;;;;;;;;19.50;55.70;;;;;;7323658;19;9291;-79
2023/12/07 03:47:40;;;;;;;;;;;19.50;55.60;;;;;;7323023;19;9677;-80
2023/12/07 03:50:32;;;;;;;;;;;19.60;55.60;;;;;;7321400;19;9471;-80
2023/12/07 03:53:01;;;;;;;;;;;19.60;55.40;;;;;;7322552;19;9273;-79
2023/12/07 03:55:30;;;;;;;;;;;19.70;55.50;;;;;;7322421;19;9254;-79
2023/12/07 03:57:58;;;;;;;;;;;19.70;55.40;;;;;;7323452;19;9075;-79
2023/12/07 04:00:28;;;;;;;;;;;19.80;56.10;;;;;;7322087;19;9525;-79
2023/12/07 04:02:56;;;;;;;;;;;19.80;55.40;;;;;;7322865;19;9173;-79
2023/12/07 04:05:25;;;;;;;;;;;19.80;55.30;;;;;;7321505;19;10559;-79
2023/12/07 04:07:57;;;;;;;;;;;19.90;55.30;;;;;;7321893;19;9477;-79
2023/12/07 04:10:26;;;;;;;;;;;19.90;55.30;;;;;;7321900;19;9430;-79
2023/12/07 04:12:55;;;;;;;;;;;19.90;55.20;;;;;;7321992;19;9645;-79
2023/12/07 04:15:25;;;;;;;;;;;19.90;55.20;;;;;;7321835;19;9401;-79
2023/12/07 04:17:55;;;;;;;;;;;19.90;55.20;;;;;;7322612;19;9260;-79
2023/12/07 04:20:24;;;;;;;;;;;19.90;55.20;;;;;;7321823;19;9457;-79
2023/12/07 04:22:57;;;;;;;;;;;19.80;55.10;;;;;;7320403;19;9598;-78
2023/12/07 04:25:26;;;;;;;;;;;19.80;55.10;;;;;;7322751;19;9307;-79
2023/12/07 04:27:55;;;;;;;;;;;19.80;55.10;;;;;;7322007;19;9474;-79
2023/12/07 04:30:44;;;;;;;;;;;19.80;55.00;;;;;;7319760;19;9505;-78
2023/12/07 04:33:12;;;;;;;;;;;19.80;55.10;;;;;;7322703;19;9467;-79
2023/12/07 04:35:41;;;;;;;;;;;19.70;54.90;;;;;;7322130;19;9454;-79
2023/12/07 04:38:13;;;;;;;;;;;19.70;55.00;;;;;;7321445;19;9788;-79
2023/12/07 04:40:42;;;;;;;;;;;19.70;54.90;;;;;;7320405;19;8980;-79
2023/12/07 04:43:11;;;;;;;;;;;19.60;55.00;;;;;;7320703;19;9654;-80
2023/12/07 04:45:40;;;;;;;;;;;19.60;55.00;;;;;;7322729;19;9532;-78
2023/12/07 04:48:08;;;;;;;;;;;19.50;55.10;;;;;;7324297;19;9482;-79
2023/12/07 04:50:37;;;;;;;;;;;19.50;55.10;;;;;;7321904;19;11968;-79
2023/12/07 04:53:06;;;;;;;;;;;19.40;55.10;;;;;;7320949;19;9481;-79
2023/12/07 04:55:38;;;;;;;;;;;19.40;55.10;;;;;;7320924;19;9492;-78
2023/12/07 04:58:07;;;;;;;;;;;19.30;55.20;;;;;;7321502;19;9502;-78
2023/12/07 05:00:36;;;;;;;;;;;19.30;55.30;;;;;;7321240;19;9504;-78
2023/12/07 05:03:05;;;;;;;;;;;19.20;55.40;;;;;;7317209;19;9497;-78
2023/12/07 05:05:34;;;;;;;;;;;19.20;55.40;;;;;;7322060;19;12756;-78
2023/12/07 05:08:03;;;;;;;;;;;19.10;55.50;;;;;;7319625;19;9590;-80
2023/12/07 05:10:31;;;;;;;;;;;19.10;55.60;;;;;;7320472;19;9407;-79
2023/12/07 05:13:03;;;;;;;;;;;19.10;55.80;;;;;;7320028;19;9386;-79
2023/12/07 05:15:32;;;;;;;;;;;19.00;55.70;;;;;;7320090;19;9529;-79
2023/12/07 05:18:01;;;;;;;;;;;19.00;55.80;;;;;;7320789;19;9633;-79
2023/12/07 05:20:30;;;;;;;;;;;18.90;55.70;;;;;;7321142;19;9361;-79
2023/12/07 05:23:00;;;;;;;;;;;18.90;55.90;;;;;;7320538;19;9502;-80
2023/12/07 05:25:29;;;;;;;;;;;18.90;55.90;;;;;;7323170;19;9275;-79
2023/12/07 05:27:58;;;;;;;;;;;18.80;55.90;;;;;;7319925;19;9469;-80
2023/12/07 05:30:30;;;;;;;;;;;18.80;56.00;;;;;;7320639;19;9545;-79
2023/12/07 05:32:59;;;;;;;;;;;18.80;56.10;;;;;;7320603;19;9462;-80
2023/12/07 05:35:28;;;;;;;;;;;18.70;56.00;;;;;;7319815;19;11034;-79
2023/12/07 05:37:58;;;;;;;;;;;18.70;56.10;;;;;;7319187;19;9461;-79
2023/12/07 05:40:27;;;;;;;;;;;18.70;56.20;;;;;;7319201;19;9442;-80
2023/12/07 05:42:56;;;;;;;;;;;18.70;56.20;;;;;;7318280;19;9476;-80
2023/12/07 05:45:26;;;;;;;;;;;18.70;56.20;;;;;;7319605;19;9423;-79
2023/12/07 05:47:57;;;;;;;;;;;18.60;56.10;;;;;;7319275;19;10664;-79
2023/12/07 05:50:26;;;;;;;;;;;18.60;56.20;;;;;;7317984;19;9613;-79
2023/12/07 05:52:55;;;;;;;;;;;18.60;56.20;;;;;;7320425;19;9290;-79
2023/12/07 05:55:24;;;;;;;;;;;18.60;56.20;;;;;;7318342;19;9573;-79
2023/12/07 05:57:54;;;;;;;;;;;18.60;56.20;;;;;;7321086;19;9629;-79
2023/12/07 06:00:23;;;;;;;;;;;18.60;56.10;;;;;;7320278;19;9448;-79
2023/12/07 06:02:52;;;;;;;;;;;18.50;56.10;;;;;;7321679;19;9659;-79
2023/12/07 06:05:24;;;;;;;;;;;18.60;56.10;;;;;;7319110;19;9452;-80
2023/12/07 06:07:54;;;;;;;;;;;18.60;56.00;;;;;;7319086;19;9536;-78
2023/12/07 06:10:23;;;;;;;;;;;18.70;56.00;;;;;;7318485;19;9459;-79
2023/12/07 06:12:52;;;;;;;;;;;18.70;55.90;;;;;;7317512;19;9524;-79
2023/12/07 06:15:21;;;;;;;;;;;18.80;56.00;;;;;;7319871;19;9534;-78
2023/12/07 06:17:49;;;;;;;;;;;18.90;56.10;;;;;;7319641;19;9577;-79
2023/12/07 06:20:18;;;;;;;;;;;18.90;56.00;;;;;;7317848;19;9269;-78
2023/12/07 06:22:50;;;;;;;;;;;19.00;55.80;;;;;;7316817;19;9119;-79
2023/12/07 06:25:20;;;;;;;;;;;19.00;55.70;;;;;;7319776;19;9465;-80
2023/12/07 06:27:48;;;;;;;;;;;19.10;55.70;;;;;;7318297;19;9521;-79
2023/12/07 06:30:17;;;;;;;;;;;19.20;55.60;;;;;;7316805;19;9473;-79
2023/12/07 06:32:47;;;;;;;;;;;19.30;55.60;;;;;;7317423;19;9452;-79
2023/12/07 06:35:17;;;;;;;;;;;19.30;55.50;;;;;;7317832;19;9607;-79
2023/12/07 06:37:46;;;;;;;;;;;19.40;55.50;;;;;;7316633;19;9256;-79
2023/12/07 06:40:18;;;;;;;;;;;19.50;55.40;;;;;;7319360;19;10213;-80
2023/12/07 06:42:48;;;;;;;;;;;19.50;55.20;;;;;;7319739;19;9473;-80
2023/12/07 06:45:17;;;;;;;;;;;19.60;55.30;;;;;;7316825;19;9565;-80
2023/12/07 06:47:46;;;;;;;;;;;19.60;55.20;;;;;;7317453;19;9251;-79
2023/12/07 06:50:15;;;;;;;;;;;19.70;55.20;;;;;;7315652;19;9454;-79
2023/12/07 06:52:45;;;;;;;;;;;19.70;55.30;;;;;;7318734;19;9582;-79
2023/12/07 06:55:16;;;;;;;;;;;19.70;55.10;;;;;;7322110;19;9484;-79
2023/12/07 06:57:45;;;;;;;;;;;19.80;55.10;;;;;;7325696;19;9235;-79
2023/12/07 07:00:15;;;;;;;;;;;19.80;55.10;;;;;;7323014;19;9481;-79
2023/12/07 07:02:44;;;;;;;;;;;19.90;55.20;;;;;;7324094;19;9626;-79
2023/12/07 07:05:13;;;;;;;;;;;19.90;55.00;;;;;;7322953;19;9432;-80
2023/12/07 07:07:42;;;;;;;;;;;19.90;55.10;;;;;;7322875;19;9247;-81
2023/12/07 07:10:12;;;;;;;;;;;19.90;55.80;;;;;;7324273;19;9170;-81
2023/12/07 07:12:43;;;;;;;;;;;19.90;55.20;;;;;;7326163;19;9254;-81
2023/12/07 07:15:13;;;;;;;;;;;19.90;55.30;;;;;;7323430;19;9553;-80
2023/12/07 07:17:42;;;;;;;;;;;19.90;55.40;;;;;;7329068;19;9415;-81
2023/12/07 07:20:11;;;;;;;;;;;19.80;55.30;;;;;;7323439;19;9365;-80
2023/12/07 07:22:40;;;;;;;;;;;19.80;55.30;;;;;;7322317;19;9583;-74
2023/12/07 07:25:10;;;;;;;;;;;19.80;55.40;;;;;;7321790;19;9493;-73
2023/12/07 07:27:43;;;;;;;;;;;19.70;55.30;;;;;;7320910;19;9436;-73
2023/12/07 07:30:13;;;;;;;;;;;19.70;55.30;;;;;;7321176;19;10336;-73
2023/12/07 07:32:42;;;;;;;;;;;19.70;55.40;;;;;;7322982;19;9337;-73
2023/12/07 07:35:12;;;;;;;;;;;19.60;55.30;;;;;;7323547;19;9449;-73
2023/12/07 07:37:41;;;;;;;;;;;19.60;55.40;;;;;;7323782;19;9535;-73
2023/12/07 07:40:12;;;;;;;;;;;19.50;56.10;;;;;;7323140;19;9466;-73
2023/12/07 07:42:43;;;;;;;;;;;19.50;55.50;;;;;;7323003;19;9142;-73
2023/12/07 07:45:13;;;;;;;;;;;19.40;55.50;;;;;;7322440;19;9332;-73
2023/12/07 07:47:42;;;;;;;;;;;19.40;55.60;;;;;;7322986;19;9537;-73
2023/12/07 07:50:12;;;;;;;;;;;19.40;55.70;;;;;;7323740;19;9692;-73
2023/12/07 07:52:42;;;;;;;;;;;19.30;55.80;;;;;;7323089;19;9312;-72
2023/12/07 07:55:12;;;;;;;;;;;19.30;55.90;;;;;;7322021;19;9193;-73
2023/12/07 07:57:44;;;;;;;;;;;19.20;55.90;;;;;;7323748;19;10418;-73
2023/12/07 08:00:34;;;;;;;;;;;19.20;56.70;;;;;;7321326;19;9558;-73
2023/12/07 08:03:03;;;;;;;;;;;19.10;56.00;;;;;;7322069;19;9357;-72
2023/12/07 08:05:33;;;;;;;;;;;19.10;56.00;;;;;;7322791;19;9253;-72
2023/12/07 08:08:02;;;;;;;;;;;19.00;56.10;;;;;;7323087;19;9320;-72
2023/12/07 08:10:31;;;;;;;;;;;19.00;56.10;;;;;;7320214;19;11222;-72
2023/12/07 08:13:02;;;;;;;;;;;19.00;56.20;;;;;;7322036;19;9528;-72
2023/12/07 08:15:32;;;;;;;;;;;18.90;56.20;;;;;;7322822;19;9638;-73
2023/12/07 08:17:58;;;;;;;;;;;18.90;56.20;;;;;;7321747;19;9630;-73
2023/12/07 08:20:27;;;;;;;;;;;18.80;56.20;;;;;;7323335;19;9530;-73
2023/12/07 08:22:56;;;;;;;;;;;18.80;56.30;;;;;;7321485;19;9186;-73
2023/12/07 08:25:25;;;;;;;;;;;18.80;56.30;;;;;;7322332;19;10360;-72
2023/12/07 08:27:55;;;;;;;;;;;18.80;56.40;;;;;;7320363;19;10771;-73
2023/12/07 08:30:26;;;;;;;;;;;18.80;56.40;;;;;;7323654;19;9499;-73
2023/12/07 08:32:55;;;;;;;;;;;18.80;57.10;;;;;;7321513;19;9319;-73
2023/12/07 08:35:24;;;;;;;;;;;18.70;56.40;;;;;;7322232;19;9465;-73
2023/12/07 08:37:53;;;;;;;;;;;18.70;56.50;;;;;;7320775;19;9237;-73
2023/12/07 08:40:22;;;;;;;;;;;18.70;56.50;;;;;;7320653;19;9386;-73
2023/12/07 08:42:51;;;;;;;;;;;18.60;56.50;;;;;;7320458;19;9265;-73
2023/12/07 08:45:20;;;;;;;;;;;18.60;56.50;;;;;;7322309;19;9461;-73
2023/12/07 08:47:52;;;;;;;;;;;18.60;56.50;;;;;;7320458;19;9540;-73
2023/12/07 08:50:21;;;;;;;;;;;18.60;56.50;;;;;;7322267;19;9175;-72
2023/12/07 08:52:49;;;;;;;;;;;18.60;56.50;;;;;;7322847;19;9160;-73
2023/12/07 08:55:19;;;;;;;;;;;18.60;56.50;;;;;;7322054;19;9568;-73
2023/12/07 08:57:47;;;;;;;;;;;18.60;56.50;;;;;;7323146;19;9468;-73
2023/12/07 09:00:18;;;;;;;;;;;18.60;56.50;;;;;;7320983;19;9644;-73
2023/12/07 09:02:47;;;;;;;;;;;18.60;56.40;;;;;;7321489;19;9356;-73
2023/12/07 09:05:18;;;;;;;;;;;18.60;56.30;;;;;;7320098;19;9439;-73
2023/12/07 09:07:47;;;;;;;;;;;18.70;56.30;;;;;;7317499;19;10483;-73
2023/12/07 09:10:36;;;;;;;;;;;18.80;56.90;;;;;;7319485;19;9695;-72
2023/12/07 09:13:05;;;;;;;;;;;18.90;56.20;;;;;;7319005;19;9381;-73
2023/12/07 09:15:37;;;;;;;;;;;18.90;56.30;;;;;;7321068;19;10796;-73
2023/12/07 09:18:06;;;;;;;;;;;19.00;56.80;;;;;;7318876;19;9489;-73
2023/12/07 09:20:37;;;;;;;;;;;19.00;56.10;;;;;;7322750;19;9150;-73
2023/12/07 09:23:07;;;;;;;;;;;19.10;56.10;;;;;;7318442;19;9431;-73
2023/12/07 09:25:56;;;;;;;;;;;19.20;55.90;;;;;;7319644;19;9178;-73
2023/12/07 09:28:26;;;;;;;;;;;19.30;55.90;;;;;;7321141;19;9604;-73
2023/12/07 09:30:55;;;;;;;;;;;19.30;55.80;;;;;;7321196;19;9469;-72
2023/12/07 09:33:24;;;;;;;;;;;19.40;56.20;;;;;;7319158;19;9470;-73
2023/12/07 09:35:58;;;;;;;;;;;19.50;55.80;;;;;;7319574;19;9520;-73
2023/12/07 09:38:27;;;;;;;;;;;19.50;55.70;;;;;;7318849;19;10594;-73
2023/12/07 09:40:56;;;;;;;;;;;19.60;55.60;;;;;;7319471;19;10416;-73
2023/12/07 09:43:25;;;;;;;;;;;19.60;55.50;;;;;;7318902;19;9403;-72
2023/12/07 09:45:57;;;;;;;;;;;19.70;55.40;;;;;;7321063;19;9483;-73
2023/12/07 09:48:28;;;;;;;;;;;19.70;55.40;;;;;;7319594;19;9424;-73
2023/12/07 09:51:03;;;;;;;;;;;19.80;55.30;;;;;;7318802;19;9400;-73
2023/12/07 09:53:35;;;;;;;;;;;19.90;55.30;;;;;;7317366;19;9253;-73
2023/12/07 09:56:04;;;;;;;;;;;19.90;55.30;;;;;;7319649;19;9170;-74
2023/12/07 09:58:33;;;;;;;;;;;20.00;55.20;;;;;;7318218;19;9281;-73
2023/12/07 10:01:02;;;;;;;;;;;20.00;55.10;;;;;;7318129;19;9266;-73
2023/12/07 10:03:51;;;;;;;;;;;20.00;55.20;;;;;;7317614;19;9294;-74
2023/12/07 10:06:22;;;;;;;;;;;20.00;55.10;;;;;;7317609;19;9189;-73
2023/12/07 10:09:11;;;;;;;;;;;20.10;55.10;;;;;;7315688;19;9580;-73
2023/12/07 10:11:44;;;;;;;;;;;20.00;55.00;;;;;;7317639;19;9491;-73
2023/12/07 10:14:13;;;;;;;;;;;20.00;55.00;;;;;;7317977;19;9496;-73
2023/12/07 10:16:56;;;;;;;;;;;20.00;54.90;;;;;;7316873;19;9453;-73
2023/12/07 10:19:27;;;;;;;;;;;20.10;54.80;;;;;;7318003;19;9473;-73
2023/12/07 10:21:58;;;;;;;;;;;20.10;54.80;;;;;;7318251;19;9445;-73
2023/12/07 10:24:30;;;;;;;;;;;20.00;54.90;;;;;;7317517;19;9561;-73
2023/12/07 10:26:59;;;;;;;;;;;20.00;54.70;;;;;;7315943;19;9471;-73
2023/12/07 10:29:31;;;;;;;;;;;20.00;54.60;;;;;;7319494;19;9633;-74
2023/12/07 10:32:04;;;;;;;;;;;19.90;54.70;;;;;;7325265;19;9660;-73
2023/12/07 10:34:35;;;;;;;;;;;19.90;54.60;;;;;;7320251;19;9485;-73
2023/12/07 10:37:07;;;;;;;;;;;19.90;54.70;;;;;;7323434;19;9795;-73
2023/12/07 10:39:37;;;;;;;;;;;19.90;54.70;;;;;;7321988;19;9554;-74
2023/12/07 10:42:13;;;;;;;;;;;19.80;55.50;;;;;;7325151;19;9768;-73
2023/12/07 10:44:45;;;;;;;;;;;19.80;54.90;;;;;;7322342;19;9509;-74
2023/12/07 10:47:14;;;;;;;;;;;19.80;54.90;;;;;;7323458;19;10515;-73
2023/12/07 10:49:48;;;;;;;;;;;19.70;55.10;;;;;;7324407;19;9401;-73
2023/12/07 10:52:26;;;;;;;;;;;19.70;55.10;;;;;;7323969;19;9223;-73
2023/12/07 10:55:05;;;;;;;;;;;19.70;55.20;;;;;;7321779;19;9157;-73
2023/12/07 10:57:37;;;;;;;;;;;19.60;55.20;;;;;;7323971;19;9624;-79
2023/12/07 11:00:08;;;;;;;;;;;19.60;55.30;;;;;;7321997;19;9268;-78
2023/12/07 11:02:39;;;;;;;;;;;19.50;55.40;;;;;;7323003;19;9733;-77
2023/12/07 11:05:09;;;;;;;;;;;19.50;55.60;;;;;;7321281;19;9605;-74
2023/12/07 11:07:51;;;;;;;;;;;19.50;55.70;;;;;;7321922;19;9230;-79
2023/12/07 11:10:28;;;;;;;;;;;19.50;55.90;;;;;;7322391;19;9603;-78
2023/12/07 11:13:13;;;;;;;;;;;19.50;56.00;;;;;;7323698;19;9226;-79
2023/12/07 11:15:43;;;;;;;;;;;19.50;56.10;;;;;;7322676;19;9519;-78
2023/12/07 11:18:14;;;;;;;;;;;19.50;56.10;;;;;;7321600;19;9262;-79
2023/12/07 11:20:47;;;;;;;;;;;19.50;56.20;;;;;;7322659;19;9448;-79
2023/12/07 11:23:22;;;;;;;;;;;19.50;56.30;;;;;;7322901;19;9319;-79
2023/12/07 11:25:54;;;;;;;;;;;19.50;56.40;;;;;;7323527;19;8970;-79
2023/12/07 11:28:38;;;;;;;;;;;19.50;56.40;;;;;;7322082;19;9234;-79
2023/12/07 11:31:09;;;;;;;;;;;19.50;56.40;;;;;;7321038;19;9253;-79
2023/12/07 11:33:41;;;;;;;;;;;19.50;56.40;;;;;;7323975;19;9183;-79
2023/12/07 11:36:12;;;;;;;;;;;19.60;56.50;;;;;;7323323;19;9417;-79
2023/12/07 11:39:20;;;;;;;;;;;19.60;56.60;;;;;;7322520;19;9621;-79
2023/12/07 11:41:56;;;;;;;;;;;19.60;56.50;;;;;;7321377;19;9217;-78
2023/12/07 11:44:35;;;;;;;;;;;19.60;56.60;;;;;;7320036;19;9469;-78
2023/12/07 11:47:04;;;;;;;;;;;19.60;56.60;;;;;;7322276;19;9170;-79
2023/12/07 11:49:33;;;;;;;;;;;19.60;56.60;;;;;;7321010;19;9184;-79
2023/12/07 11:52:03;;;;;;;;;;;19.70;56.70;;;;;;7319750;19;9241;-78
2023/12/07 11:54:34;;;;;;;;;;;19.60;56.50;;;;;;7322820;19;9324;-79
2023/12/07 11:57:03;;;;;;;;;;;19.70;56.60;;;;;;7322339;19;9498;-78
2023/12/07 11:59:33;;;;;;;;;;;19.70;56.60;;;;;;7321551;19;9448;-79
2023/12/07 12:02:03;;;;;;;;;;;19.70;56.70;;;;;;7320240;19;9337;-78
2023/12/07 12:04:31;;;;;;;;;;;19.60;56.60;;;;;;7321902;19;9540;-79
2023/12/07 12:07:00;;;;;;;;;;;19.60;56.60;;;;;;7320989;19;9455;-78
2023/12/07 12:09:29;;;;;;;;;;;19.60;56.70;;;;;;7320053;19;9184;-79
2023/12/07 12:12:03;;;;;;;;;;;19.50;56.70;;;;;;7319952;19;9411;-79
2023/12/07 12:14:32;;;;;;;;;;;19.50;56.90;;;;;;7320950;19;9615;-79
2023/12/07 12:17:01;;;;;;;;;;;19.50;56.90;;;;;;7321571;19;9132;-79
2023/12/07 12:19:30;;;;;;;;;;;19.40;57.00;;;;;;7321235;19;9659;-79
2023/12/07 12:21:59;;;;;;;;;;;19.40;57.10;;;;;;7319999;19;9338;-80
2023/12/07 12:24:29;;;;;;;;;;;19.30;57.80;;;;;;7320953;19;9491;-80
2023/12/07 12:27:01;;;;;;;;;;;19.30;57.20;;;;;;7321869;19;9518;-79
2023/12/07 12:29:31;;;;;;;;;;;19.30;57.20;;;;;;7321437;19;9510;-79
2023/12/07 12:32:01;;;;;;;;;;;19.20;57.20;;;;;;7320477;19;9457;-79
2023/12/07 12:34:32;;;;;;;;;;;19.20;57.40;;;;;;7319350;19;9453;-80
2023/12/07 12:37:01;;;;;;;;;;;19.20;57.40;;;;;;7314335;19;9403;-80
2023/12/07 12:39:31;;;;;;;;;;;19.10;57.40;;;;;;7318267;19;9408;-79
2023/12/07 12:42:04;;;;;;;;;;;19.10;57.40;;;;;;7321289;19;9484;-80
2023/12/07 12:44:33;;;;;;;;;;;19.10;57.40;;;;;;7318205;19;9291;-79
2023/12/07 12:47:02;;;;;;;;;;;19.10;57.40;;;;;;7319872;19;9249;-79
2023/12/07 12:49:39;;;;;;;;;;;19.00;57.50;;;;;;7322100;19;9555;-79
2023/12/07 12:52:12;;;;;;;;;;;19.00;57.60;;;;;;7317579;19;9366;-79
2023/12/07 12:54:41;;;;;;;;;;;18.90;57.60;;;;;;7322041;19;9102;-79
2023/12/07 12:57:14;;;;;;;;;;;18.90;57.50;;;;;;7318680;19;9357;-79
2023/12/07 12:59:43;;;;;;;;;;;18.90;57.60;;;;;;7320498;19;9621;-79
2023/12/07 13:02:12;;;;;;;;;;;18.90;57.60;;;;;;7319478;19;9994;-79
2023/12/07 13:04:41;;;;;;;;;;;18.90;57.60;;;;;;7320179;19;9465;-78
2023/12/07 13:07:12;;;;;;;;;;;18.80;57.60;;;;;;7320471;19;9485;-79
2023/12/07 13:09:43;;;;;;;;;;;18.80;57.70;;;;;;7318322;19;9608;-79
2023/12/07 13:12:14;;;;;;;;;;;18.80;57.60;;;;;;7320810;19;9450;-80
2023/12/07 13:14:44;;;;;;;;;;;18.70;57.60;;;;;;7318301;19;9503;-79
2023/12/07 13:17:12;;;;;;;;;;;18.70;57.60;;;;;;7317813;19;9666;-79
2023/12/07 13:19:41;;;;;;;;;;;18.70;57.60;;;;;;7315790;19;9346;-80
2023/12/07 13:22:10;;;;;;;;;;;18.70;57.60;;;;;;7319215;19;9505;-79
2023/12/07 13:24:39;;;;;;;;;;;18.70;57.60;;;;;;7319373;19;9648;-79
2023/12/07 13:27:08;;;;;;;;;;;18.70;57.60;;;;;;7320674;19;9376;-79
2023/12/07 13:29:40;;;;;;;;;;;18.60;57.50;;;;;;7319571;19;9633;-79
2023/12/07 13:32:10;;;;;;;;;;;18.60;57.60;;;;;;7318442;19;9174;-79
2023/12/07 13:34:38;;;;;;;;;;;18.60;57.70;;;;;;7319813;19;9441;-79
2023/12/07 13:37:08;;;;;;;;;;;18.60;57.50;;;;;;7319414;19;9575;-79
2023/12/07 13:39:38;;;;;;;;;;;18.60;57.60;;;;;;7321082;19;9638;-79
2023/12/07 13:42:08;;;;;;;;;;;18.60;57.50;;;;;;7320262;19;9334;-79
2023/12/07 13:44:40;;;;;;;;;;;18.60;57.60;;;;;;7321069;19;9342;-79
2023/12/07 13:47:09;;;;;;;;;;;18.60;57.60;;;;;;7320087;19;9221;-79
2023/12/07 13:49:39;;;;;;;;;;;18.60;57.60;;;;;;7320605;19;10223;-78
2023/12/07 13:52:09;;;;;;;;;;;18.50;57.40;;;;;;7320032;19;9466;-78
2023/12/07 13:54:38;;;;;;;;;;;18.50;57.40;;;;;;7319428;19;9491;-78
2023/12/07 13:57:07;;;;;;;;;;;18.60;57.40;;;;;;7320974;19;9170;-79
2023/12/07 13:59:36;;;;;;;;;;;18.60;57.40;;;;;;7319487;19;9265;-79
2023/12/07 14:02:08;;;;;;;;;;;18.60;57.20;;;;;;7319497;19;9438;-78
2023/12/07 14:04:37;;;;;;;;;;;18.70;57.20;;;;;;7326014;19;9484;-79
2023/12/07 14:07:11;;;;;;;;;;;18.70;57.10;;;;;;7326521;19;9404;-79
2023/12/07 14:09:40;;;;;;;;;;;18.70;57.00;;;;;;7325678;19;9506;-79
2023/12/07 14:12:12;;;;;;;;;;;18.80;56.90;;;;;;7327678;19;9450;-78
2023/12/07 14:15:01;;;;;;;;;;;18.90;57.70;;;;;;7324728;19;9499;-78
2023/12/07 14:17:37;;;;;;;;;;;18.90;56.90;;;;;;7326077;19;9633;-78
2023/12/07 14:20:07;;;;;;;;;;;19.00;56.80;;;;;;7323951;19;9463;-78
2023/12/07 14:22:38;;;;;;;;;;;19.10;56.70;;;;;;7326392;19;9340;-78
2023/12/07 14:25:08;;;;;;;;;;;19.10;56.60;;;;;;7325667;19;9351;-78
2023/12/07 14:27:57;;;;;;;;;;;19.20;56.60;;;;;;7322845;19;9478;-79
2023/12/07 14:30:26;;;;;;;;;;;19.20;56.50;;;;;;7325587;19;9410;-78
2023/12/07 14:32:58;;;;;;;;;;;19.30;56.40;;;;;;7325057;19;9230;-78
2023/12/07 14:35:27;;;;;;;;;;;19.30;56.20;;;;;;7326070;19;9259;-78
2023/12/07 14:37:56;;;;;;;;;;;19.30;56.20;;;;;;7325707;19;9495;-78
2023/12/07 14:40:25;;;;;;;;;;;19.30;56.20;;;;;;7325478;19;9485;-78
2023/12/07 14:42:54;;;;;;;;;;;19.40;56.30;;;;;;7325153;19;9519;-78
2023/12/07 14:45:23;;;;;;;;;;;19.40;56.30;;;;;;7325976;19;9524;-78
2023/12/07 14:47:52;;;;;;;;;;;19.50;56.20;;;;;;7324176;19;9469;-78
2023/12/07 14:50:24;;;;;;;;;;;19.50;56.20;;;;;;7323958;19;9465;-79